Time;durP1;ratioP1;P1;durP2;ratioP2;P2;SDS_P1;SDS_P2;PMS_P1;PMS_P2;Temp;Humidity;BMP_temperature;BMP_pressure;BME280_temperature;BME280_humidity;BME280_pressure;Samples;Min_cycle;Max_cycle;Signal;HPM_P1;HPM_P2
2024/03/23 00:02:24;;;;;;;10.65;5.05;;;11.00;99.90;;;;;;5051225;28;20464;-79
2024/03/23 00:04:50;;;;;;;10.95;6.03;;;11.00;99.90;;;;;;5051822;28;20041;-78
2024/03/23 00:07:17;;;;;;;11.23;5.28;;;10.90;99.90;;;;;;5048143;28;20033;-78
2024/03/23 00:09:43;;;;;;;8.85;4.60;;;10.90;99.90;;;;;;5051142;28;20051;-78
2024/03/23 00:12:13;;;;;;;9.90;4.93;;;10.90;99.90;;;;;;5051628;28;20025;-78
2024/03/23 00:14:40;;;;;;;7.60;4.10;;;11.00;99.90;;;;;;5054019;28;20043;-75
2024/03/23 00:17:06;;;;;;;9.05;4.57;;;11.00;99.90;;;;;;5054938;28;20039;-75
2024/03/23 00:19:33;;;;;;;11.90;6.40;;;11.00;99.90;;;;;;5055202;28;20040;-76
2024/03/23 00:21:59;;;;;;;11.65;5.45;;;11.00;99.90;;;;;;5053621;28;20043;-76
2024/03/23 00:24:26;;;;;;;10.02;5.38;;;11.00;99.90;;;;;;5056285;28;20033;-78
2024/03/23 00:26:52;;;;;;;7.95;4.65;;;11.00;99.90;;;;;;5055549;28;21294;-78
2024/03/23 00:29:19;;;;;;;11.68;5.28;;;11.10;99.90;;;;;;5055558;28;20052;-78
2024/03/23 00:31:46;;;;;;;8.35;5.15;;;11.00;99.90;;;;;;5055132;28;20474;-78
2024/03/23 00:34:12;;;;;;;11.65;5.10;;;10.90;99.90;;;;;;5054063;28;20044;-78
2024/03/23 00:36:39;;;;;;;9.75;4.28;;;10.90;99.90;;;;;;5052279;28;20029;-77
2024/03/23 00:39:06;;;;;;;8.27;4.00;;;10.80;99.90;;;;;;5055601;28;20041;-78
2024/03/23 00:41:33;;;;;;;9.13;4.25;;;10.80;99.90;;;;;;5055440;28;20037;-77
2024/03/23 00:43:59;;;;;;;10.43;3.83;;;10.80;99.90;;;;;;5053914;28;20056;-76
2024/03/23 00:46:26;;;;;;;9.15;4.85;;;10.80;99.90;;;;;;5054983;28;20041;-76
2024/03/23 00:48:52;;;;;;;10.43;5.20;;;10.80;99.90;;;;;;5053634;28;20048;-75
2024/03/23 00:51:19;;;;;;;8.93;4.82;;;10.80;99.90;;;;;;5054490;28;20041;-75
2024/03/23 00:53:44;;;;;;;9.45;4.78;;;10.80;99.90;;;;;;5056096;28;20036;-75
2024/03/23 00:56:10;;;;;;;7.75;4.18;;;10.70;99.90;;;;;;5054768;28;20102;-75
2024/03/23 00:58:35;;;;;;;10.60;4.70;;;10.80;99.90;;;;;;5053479;28;20072;-75
2024/03/23 01:01:03;;;;;;;8.35;4.75;;;10.80;99.90;;;;;;5054398;28;20029;-75
2024/03/23 01:03:29;;;;;;;12.55;5.55;;;10.70;99.90;;;;;;5054222;28;20062;-75
2024/03/23 01:05:58;;;;;;;11.38;4.30;;;10.70;99.90;;;;;;5052092;28;20041;-78
2024/03/23 01:08:24;;;;;;;9.35;4.85;;;10.80;99.90;;;;;;5054842;28;20093;-78
2024/03/23 01:10:57;;;;;;;8.48;4.93;;;10.80;99.90;;;;;;5054681;28;20045;-78
2024/03/23 01:13:23;;;;;;;9.88;4.75;;;10.80;99.90;;;;;;5054249;28;20555;-78
2024/03/23 01:15:50;;;;;;;9.32;4.80;;;10.70;99.90;;;;;;5054245;28;20546;-78
2024/03/23 01:18:15;;;;;;;10.55;5.93;;;10.60;99.90;;;;;;5054825;28;20040;-78
2024/03/23 01:20:41;;;;;;;9.90;4.80;;;10.60;99.90;;;;;;5054084;28;20035;-78
2024/03/23 01:23:06;;;;;;;11.75;5.13;;;10.60;99.90;;;;;;5054425;28;20032;-78
2024/03/23 01:25:32;;;;;;;13.02;5.20;;;10.50;99.90;;;;;;5054616;28;20025;-78
2024/03/23 01:27:58;;;;;;;9.48;5.45;;;10.60;99.90;;;;;;5053763;28;20048;-78
2024/03/23 01:30:23;;;;;;;8.38;4.57;;;10.50;99.90;;;;;;5055014;28;20040;-78
2024/03/23 01:32:49;;;;;;;13.23;5.25;;;10.50;99.90;;;;;;5053500;28;20044;-78
2024/03/23 01:35:14;;;;;;;12.38;5.50;;;10.50;99.90;;;;;;5054956;28;20032;-78
2024/03/23 01:37:40;;;;;;;9.63;4.85;;;10.60;99.90;;;;;;5052949;28;20028;-78
2024/03/23 01:40:06;;;;;;;10.18;6.45;;;10.50;99.90;;;;;;5054400;28;20036;-78
2024/03/23 01:42:31;;;;;;;8.65;4.82;;;10.50;99.90;;;;;;5054400;28;20041;-78
2024/03/23 01:44:57;;;;;;;10.90;5.05;;;10.50;99.90;;;;;;5053111;28;20065;-78
2024/03/23 01:47:23;;;;;;;8.50;4.82;;;10.50;99.90;;;;;;5053280;28;20036;-78
2024/03/23 01:49:48;;;;;;;8.40;4.53;;;10.40;99.90;;;;;;5054509;28;20793;-78
2024/03/23 01:52:14;;;;;;;10.95;5.03;;;10.40;99.90;;;;;;5053748;28;20029;-78
2024/03/23 01:54:40;;;;;;;11.18;4.78;;;10.20;99.90;;;;;;5052020;28;20363;-78
2024/03/23 01:57:06;;;;;;;10.20;5.82;;;10.20;99.90;;;;;;5054897;28;20443;-78
2024/03/23 01:59:32;;;;;;;9.48;5.72;;;10.20;99.90;;;;;;5053229;28;20044;-78
2024/03/23 02:01:58;;;;;;;13.57;6.53;;;10.20;99.90;;;;;;5052647;28;20028;-78
2024/03/23 02:04:23;;;;;;;9.38;5.07;;;10.30;99.90;;;;;;5054588;28;20387;-78
2024/03/23 02:06:49;;;;;;;10.13;5.05;;;10.30;99.90;;;;;;5052760;28;20059;-78
2024/03/23 02:09:15;;;;;;;11.52;6.00;;;10.20;99.90;;;;;;5050340;28;21796;-78
2024/03/23 02:11:41;;;;;;;7.25;4.78;;;10.10;99.90;;;;;;5054421;28;20037;-77
2024/03/23 02:14:07;;;;;;;10.60;4.35;;;10.30;99.90;;;;;;5053173;28;20771;-78
2024/03/23 02:16:33;;;;;;;7.07;4.32;;;10.40;99.90;;;;;;5053804;28;20028;-78
2024/03/23 02:18:58;;;;;;;8.32;4.00;;;10.30;99.90;;;;;;5052331;28;20106;-78
2024/03/23 02:21:24;;;;;;;7.15;3.95;;;10.30;99.90;;;;;;5052421;28;20034;-77
2024/03/23 02:23:50;;;;;;;10.95;5.05;;;10.20;99.90;;;;;;5053138;28;20093;-78
2024/03/23 02:26:16;;;;;;;11.15;5.07;;;10.20;99.90;;;;;;5053795;28;20033;-78
2024/03/23 02:28:42;;;;;;;7.97;4.32;;;10.20;99.90;;;;;;5053303;28;20593;-78
2024/03/23 02:31:08;;;;;;;9.27;4.45;;;10.10;99.90;;;;;;5054281;28;20033;-78
2024/03/23 02:33:34;;;;;;;9.95;5.13;;;9.90;99.90;;;;;;5051720;28;20036;-78
2024/03/23 02:36:00;;;;;;;10.20;5.20;;;9.80;99.90;;;;;;5051493;28;20508;-78
2024/03/23 02:38:25;;;;;;;9.68;5.00;;;10.00;99.90;;;;;;5054589;28;20039;-77
2024/03/23 02:40:51;;;;;;;9.90;5.60;;;9.90;99.90;;;;;;5051985;28;20134;-78
2024/03/23 02:43:16;;;;;;;11.98;6.93;;;9.90;99.90;;;;;;5054816;28;20035;-78
2024/03/23 02:45:42;;;;;;;13.25;6.38;;;10.00;99.90;;;;;;5052866;28;20155;-78
2024/03/23 02:48:08;;;;;;;13.23;7.47;;;10.10;99.90;;;;;;5053017;28;20044;-78
2024/03/23 02:50:33;;;;;;;13.98;7.25;;;10.10;99.90;;;;;;5052661;28;20495;-78
2024/03/23 02:52:59;;;;;;;12.10;6.20;;;10.00;99.90;;;;;;5052188;28;20044;-78
2024/03/23 02:55:24;;;;;;;9.02;5.15;;;9.90;99.90;;;;;;5052364;28;20037;-78
2024/03/23 02:57:50;;;;;;;11.35;6.00;;;9.70;99.90;;;;;;5054087;28;20075;-78
2024/03/23 03:00:16;;;;;;;13.85;6.85;;;9.50;99.90;;;;;;5051032;28;20067;-78
2024/03/23 03:02:41;;;;;;;12.23;6.55;;;9.50;99.90;;;;;;5053392;28;20517;-78
2024/03/23 03:05:08;;;;;;;10.18;5.22;;;9.50;99.90;;;;;;5052686;28;20039;-78
2024/03/23 03:07:34;;;;;;;12.20;6.25;;;9.70;99.90;;;;;;5050423;28;20040;-78
2024/03/23 03:10:00;;;;;;;11.10;6.10;;;9.70;99.90;;;;;;5052896;28;20052;-78
2024/03/23 03:12:25;;;;;;;7.95;5.13;;;9.60;99.90;;;;;;5055418;28;20047;-78
2024/03/23 03:14:51;;;;;;;9.23;5.15;;;9.70;99.90;;;;;;5056153;28;20029;-78
2024/03/23 03:17:16;;;;;;;11.25;4.88;;;9.70;99.90;;;;;;5054664;28;20040;-78
2024/03/23 03:19:42;;;;;;;9.80;5.75;;;9.60;99.90;;;;;;5057298;28;20377;-78
2024/03/23 03:22:08;;;;;;;10.85;6.07;;;9.60;99.90;;;;;;5056322;28;20045;-77
2024/03/23 03:24:34;;;;;;;10.13;5.50;;;9.60;99.90;;;;;;5057796;28;20036;-78
2024/03/23 03:26:59;;;;;;;11.38;5.90;;;9.60;99.90;;;;;;5056378;28;20032;-78
2024/03/23 03:29:25;;;;;;;11.07;6.47;;;9.60;99.90;;;;;;5055627;28;20033;-78
2024/03/23 03:31:51;;;;;;;13.60;7.63;;;9.70;99.90;;;;;;5056903;28;20048;-78
2024/03/23 03:34:16;;;;;;;13.43;6.20;;;10.00;99.90;;;;;;5055449;28;20386;-78
2024/03/23 03:36:42;;;;;;;11.35;6.18;;;10.30;99.90;;;;;;5054698;28;20044;-78
2024/03/23 03:39:07;;;;;;;14.55;6.70;;;10.30;99.90;;;;;;5056298;28;20112;-78
2024/03/23 03:41:33;;;;;;;12.70;7.65;;;10.10;99.90;;;;;;5055644;28;20489;-78
2024/03/23 03:44:01;;;;;;;11.60;5.85;;;10.00;99.90;;;;;;5056655;28;20052;-78
2024/03/23 03:46:28;;;;;;;12.65;5.93;;;9.90;99.90;;;;;;5056145;28;20494;-77
2024/03/23 03:48:54;;;;;;;10.07;5.50;;;9.90;99.90;;;;;;5054797;28;20093;-78
2024/03/23 03:51:20;;;;;;;14.57;5.38;;;9.90;99.90;;;;;;5055222;28;20052;-78
2024/03/23 03:53:46;;;;;;;13.07;5.55;;;9.70;99.90;;;;;;5056045;28;21333;-78
2024/03/23 03:56:12;;;;;;;10.88;6.82;;;9.40;99.90;;;;;;5055401;28;21401;-77
2024/03/23 03:58:37;;;;;;;15.60;7.40;;;9.10;99.90;;;;;;5055921;28;20033;-78
2024/03/23 04:01:03;;;;;;;11.65;5.82;;;9.10;99.90;;;;;;5057233;28;20043;-78
2024/03/23 04:03:29;;;;;;;11.15;6.95;;;9.40;99.90;;;;;;5051351;28;20039;-78
2024/03/23 04:05:55;;;;;;;11.75;5.38;;;9.40;99.90;;;;;;5050068;28;20040;-78
2024/03/23 04:08:21;;;;;;;14.98;7.47;;;9.50;99.90;;;;;;5048913;28;20037;-78
2024/03/23 04:10:47;;;;;;;12.88;7.43;;;9.80;99.90;;;;;;5049979;28;20025;-78
2024/03/23 04:13:13;;;;;;;12.95;7.50;;;10.00;99.90;;;;;;5051275;28;20078;-78
2024/03/23 04:15:39;;;;;;;13.13;6.90;;;9.90;99.90;;;;;;5049469;28;20528;-78
2024/03/23 04:18:05;;;;;;;10.40;6.38;;;9.90;99.90;;;;;;5047850;28;21174;-78
2024/03/23 04:20:32;;;;;;;12.80;6.45;;;9.70;99.90;;;;;;5048935;28;20050;-79
2024/03/23 04:22:58;;;;;;;10.73;5.70;;;9.70;99.90;;;;;;5048613;28;20075;-78
2024/03/23 04:25:23;;;;;;;11.45;5.68;;;9.60;99.90;;;;;;5047582;28;20425;-78
2024/03/23 04:27:49;;;;;;;14.63;5.70;;;9.50;99.90;;;;;;5049538;28;20067;-78
2024/03/23 04:30:15;;;;;;;12.35;6.60;;;9.30;99.90;;;;;;5048584;28;20057;-78
2024/03/23 04:32:41;;;;;;;12.07;5.80;;;9.20;99.90;;;;;;5050159;28;20025;-78
2024/03/23 04:35:10;;;;;;;13.52;6.28;;;9.30;99.90;;;;;;5048526;28;20031;-78
2024/03/23 04:37:37;;;;;;;9.90;5.75;;;9.30;99.90;;;;;;5043301;28;20025;-78
2024/03/23 04:40:03;;;;;;;10.48;5.10;;;9.40;99.90;;;;;;5047639;28;20826;-78
2024/03/23 04:42:30;;;;;;;8.93;5.38;;;9.50;99.90;;;;;;5048125;28;20064;-78
2024/03/23 04:44:55;;;;;;;8.48;4.72;;;9.60;99.90;;;;;;5047815;28;20123;-78
2024/03/23 04:47:21;;;;;;;11.20;6.03;;;9.50;99.90;;;;;;5048155;28;20035;-78
2024/03/23 04:49:47;;;;;;;9.95;4.90;;;9.30;99.90;;;;;;5048827;28;20550;-79
2024/03/23 04:52:12;;;;;;;10.30;6.15;;;9.30;99.90;;;;;;5046402;28;20934;-78
2024/03/23 04:54:40;;;;;;;12.57;5.95;;;9.50;99.90;;;;;;5049475;28;20036;-78
2024/03/23 04:57:06;;;;;;;12.68;7.07;;;9.30;99.90;;;;;;5047089;28;20550;-78
2024/03/23 04:59:31;;;;;;;12.43;6.03;;;9.40;99.90;;;;;;5046856;28;20154;-79
2024/03/23 05:01:57;;;;;;;14.00;8.63;;;9.40;99.90;;;;;;5048523;28;20040;-78
2024/03/23 05:04:23;;;;;;;11.98;6.57;;;8.90;99.90;;;;;;5047696;28;20128;-78
2024/03/23 05:06:48;;;;;;;11.45;6.78;;;9.00;99.90;;;;;;5044876;28;20777;-78
2024/03/23 05:09:14;;;;;;;10.32;5.38;;;9.20;99.90;;;;;;5047941;28;20143;-79
2024/03/23 05:11:41;;;;;;;11.05;6.13;;;9.10;99.90;;;;;;5046022;28;20048;-78
2024/03/23 05:14:07;;;;;;;19.25;7.78;;;9.10;99.90;;;;;;5046636;28;20048;-78
2024/03/23 05:16:33;;;;;;;10.70;5.50;;;9.00;99.90;;;;;;5048803;28;20151;-78
2024/03/23 05:18:58;;;;;;;11.32;6.20;;;8.90;99.90;;;;;;5047593;28;20036;-78
2024/03/23 05:21:24;;;;;;;12.80;6.15;;;9.00;99.90;;;;;;5046910;28;20634;-78
2024/03/23 05:23:51;;;;;;;12.73;5.30;;;9.20;99.90;;;;;;5048537;28;20048;-78
2024/03/23 05:26:17;;;;;;;11.60;6.45;;;9.30;99.90;;;;;;5046234;28;20033;-78
2024/03/23 05:28:43;;;;;;;10.75;5.55;;;9.30;99.90;;;;;;5047935;28;20063;-78
2024/03/23 05:31:09;;;;;;;11.15;6.00;;;9.20;99.90;;;;;;5047856;28;20036;-78
2024/03/23 05:33:37;;;;;;;11.82;7.47;;;9.30;99.90;;;;;;5046784;28;20142;-78
2024/03/23 05:36:04;;;;;;;10.73;5.88;;;9.30;99.90;;;;;;5045737;28;20032;-78
2024/03/23 05:38:29;;;;;;;10.95;5.53;;;9.40;99.90;;;;;;5043431;28;20083;-78
2024/03/23 05:40:59;;;;;;;10.63;5.70;;;9.10;99.90;;;;;;5046352;28;20111;-78
2024/03/23 05:43:26;;;;;;;10.27;5.60;;;9.20;99.90;;;;;;5049624;28;20028;-78
2024/03/23 05:45:59;;;;;;;10.07;5.47;;;9.20;99.90;;;;;;5051625;28;20112;-78
2024/03/23 05:48:26;;;;;;;10.40;5.53;;;9.30;99.90;;;;;;5049583;28;20025;-78
2024/03/23 05:50:52;;;;;;;9.73;5.45;;;9.30;99.90;;;;;;5049806;28;20052;-77
2024/03/23 05:53:20;;;;;;;11.35;6.15;;;9.30;99.90;;;;;;5051467;28;20060;-78
2024/03/23 05:55:47;;;;;;;12.60;6.85;;;9.30;99.90;;;;;;5050167;28;20036;-78
2024/03/23 05:58:14;;;;;;;14.05;5.82;;;9.30;99.90;;;;;;5049971;28;20054;-78
2024/03/23 06:00:40;;;;;;;11.57;5.32;;;9.30;99.90;;;;;;5049809;28;20045;-77
2024/03/23 06:03:06;;;;;;;10.85;6.00;;;9.30;99.90;;;;;;5049787;28;20600;-78
2024/03/23 06:05:31;;;;;;;13.98;5.78;;;9.40;99.90;;;;;;5048836;28;20032;-78
2024/03/23 06:07:57;;;;;;;12.40;5.88;;;9.40;99.90;;;;;;5046589;28;20082;-79
2024/03/23 06:10:23;;;;;;;11.82;6.32;;;9.40;99.90;;;;;;5046880;28;20105;-78
2024/03/23 06:12:50;;;;;;;9.50;5.20;;;9.40;99.90;;;;;;5046253;28;20752;-78
2024/03/23 06:15:15;;;;;;;11.88;6.15;;;9.50;99.90;;;;;;5046513;28;20396;-78
2024/03/23 06:17:41;;;;;;;10.27;5.45;;;9.50;99.90;;;;;;5045710;28;20035;-78
2024/03/23 06:20:07;;;;;;;9.60;4.93;;;9.30;99.90;;;;;;5047124;28;20616;-78
2024/03/23 06:22:33;;;;;;;12.48;4.45;;;9.30;99.90;;;;;;5046145;28;20071;-78
2024/03/23 06:24:59;;;;;;;8.38;4.68;;;9.30;99.90;;;;;;5046546;28;20048;-78
2024/03/23 06:27:24;;;;;;;14.40;5.30;;;9.20;99.90;;;;;;5047425;28;20029;-78
2024/03/23 06:29:50;;;;;;;8.68;5.00;;;9.20;99.90;;;;;;5046375;28;20098;-78
2024/03/23 06:32:15;;;;;;;10.13;5.05;;;9.30;99.90;;;;;;5046318;28;20044;-79
2024/03/23 06:34:42;;;;;;;10.23;5.20;;;9.30;99.90;;;;;;5047590;28;20064;-79
2024/03/23 06:37:09;;;;;;;11.27;4.78;;;9.30;99.90;;;;;;5044460;28;20033;-78
2024/03/23 06:39:35;;;;;;;10.80;5.32;;;9.20;99.90;;;;;;5045520;28;20474;-78
2024/03/23 06:42:01;;;;;;;9.20;4.90;;;9.20;99.90;;;;;;5046712;28;20033;-78
2024/03/23 06:44:26;;;;;;;7.78;4.53;;;9.20;99.90;;;;;;5045690;28;20056;-78
2024/03/23 06:46:52;;;;;;;9.55;5.43;;;9.10;99.90;;;;;;5049400;28;20043;-78
2024/03/23 06:49:17;;;;;;;8.25;4.88;;;9.20;99.90;;;;;;5053445;28;20045;-78
2024/03/23 06:51:45;;;;;;;13.60;5.47;;;9.20;99.90;;;;;;5053345;28;20487;-78
2024/03/23 06:54:10;;;;;;;12.13;5.15;;;9.30;99.90;;;;;;5052863;28;20043;-78
2024/03/23 06:56:36;;;;;;;11.40;5.40;;;9.40;99.90;;;;;;5052110;28;20028;-78
2024/03/23 06:59:02;;;;;;;10.77;4.82;;;9.60;99.90;;;;;;5052934;28;20068;-78
2024/03/23 07:01:28;;;;;;;9.15;4.15;;;9.60;99.90;;;;;;5054540;28;20028;-79
2024/03/23 07:03:54;;;;;;;8.07;4.72;;;9.70;99.90;;;;;;5053569;28;20077;-78
2024/03/23 07:06:20;;;;;;;12.52;4.22;;;9.80;99.90;;;;;;5052508;28;20041;-78
2024/03/23 07:08:45;;;;;;;8.50;4.22;;;9.90;99.90;;;;;;5053144;28;20072;-78
2024/03/23 07:11:11;;;;;;;7.68;4.18;;;10.00;99.90;;;;;;5053461;28;20036;-78
2024/03/23 07:13:36;;;;;;;14.20;4.78;;;10.00;99.90;;;;;;5052252;28;20029;-79
2024/03/23 07:16:02;;;;;;;6.20;3.60;;;10.10;99.90;;;;;;5049997;28;20047;-78
2024/03/23 07:18:28;;;;;;;8.73;3.90;;;10.20;99.90;;;;;;5050312;28;21154;-78
2024/03/23 07:20:57;;;;;;;8.93;4.00;;;10.20;99.90;;;;;;5052228;28;20044;-78
2024/03/23 07:23:24;;;;;;;10.43;4.53;;;10.10;99.90;;;;;;5054627;28;20569;-79
2024/03/23 07:26:05;;;;;;;8.30;3.75;;;10.10;99.90;;;;;;5049560;28;20544;-78
2024/03/23 07:28:33;;;;;;;11.68;4.45;;;10.10;99.90;;;;;;5051775;28;20024;-78
2024/03/23 07:31:04;;;;;;;7.75;4.18;;;10.30;99.90;;;;;;5053276;28;20047;-78
2024/03/23 07:33:31;;;;;;;9.32;4.05;;;10.30;99.90;;;;;;5052984;28;20028;-78
2024/03/23 07:35:56;;;;;;;9.05;5.35;;;10.30;99.90;;;;;;5052266;28;20424;-78
2024/03/23 07:38:23;;;;;;;8.93;4.55;;;10.10;99.90;;;;;;5051989;28;20041;-78
2024/03/23 07:40:55;;;;;;;9.95;4.32;;;10.10;99.90;;;;;;5052283;28;20039;-78
2024/03/23 07:43:22;;;;;;;8.27;3.70;;;10.20;99.90;;;;;;5056987;28;20492;-78
2024/03/23 07:45:54;;;;;;;9.82;4.43;;;10.20;99.90;;;;;;5056902;28;20048;-81
2024/03/23 07:48:24;;;;;;;10.98;3.72;;;10.30;99.90;;;;;;5052725;28;20070;-79
2024/03/23 07:51:08;;;;;;;8.60;4.20;;;10.30;99.90;;;;;;5050865;28;20037;-81
2024/03/23 07:53:35;;;;;;;9.02;4.30;;;10.50;99.90;;;;;;5048561;28;20063;-81
2024/03/23 07:56:02;;;;;;;6.85;3.97;;;10.50;99.90;;;;;;5048850;28;20098;-79
2024/03/23 07:58:28;;;;;;;8.88;3.45;;;10.70;99.90;;;;;;5048167;28;20041;-79
2024/03/23 08:00:54;;;;;;;8.60;4.22;;;10.80;99.90;;;;;;5052114;28;20038;-78
2024/03/23 08:03:20;;;;;;;7.72;3.97;;;10.80;99.90;;;;;;5050311;28;20044;-79
2024/03/23 08:05:45;;;;;;;8.52;3.60;;;10.90;99.90;;;;;;5052500;28;20070;-79
2024/03/23 08:08:11;;;;;;;8.48;3.67;;;11.00;99.90;;;;;;5047460;28;20032;-78
2024/03/23 08:10:57;;;;;;;9.05;3.67;;;11.10;99.90;;;;;;5051629;28;20041;-78
2024/03/23 08:13:23;;;;;;;8.95;4.13;;;11.20;99.90;;;;;;5052069;28;20091;-78
2024/03/23 08:15:48;;;;;;;9.70;4.38;;;11.20;99.90;;;;;;5053865;28;20147;-78
2024/03/23 08:18:15;;;;;;;9.75;4.70;;;11.20;99.90;;;;;;5053389;28;20044;-78
2024/03/23 08:20:41;;;;;;;11.48;4.40;;;11.30;99.90;;;;;;5053078;28;20040;-77
2024/03/23 08:23:07;;;;;;;11.75;3.72;;;11.50;99.90;;;;;;5052487;28;20486;-77
2024/03/23 08:25:33;;;;;;;7.28;3.75;;;11.70;99.90;;;;;;5052504;28;20102;-78
2024/03/23 08:27:59;;;;;;;7.32;4.20;;;11.70;99.90;;;;;;5053514;28;20024;-77
2024/03/23 08:30:25;;;;;;;8.68;4.63;;;11.70;99.90;;;;;;5052746;28;20048;-77
2024/03/23 08:32:51;;;;;;;15.77;4.35;;;11.70;99.90;;;;;;5052132;28;20173;-77
2024/03/23 08:35:16;;;;;;;9.77;4.80;;;11.70;99.90;;;;;;5048867;28;20561;-78
2024/03/23 08:37:42;;;;;;;9.98;4.40;;;11.70;99.90;;;;;;5049957;28;20371;-80
2024/03/23 08:40:08;;;;;;;9.70;5.65;;;11.80;99.90;;;;;;5048977;28;20103;-78
2024/03/23 08:42:34;;;;;;;10.68;5.05;;;11.90;99.90;;;;;;5050343;28;20033;-77
2024/03/23 08:45:00;;;;;;;10.80;4.78;;;12.00;99.90;;;;;;5049808;28;20056;-78
2024/03/23 08:47:26;;;;;;;8.05;4.30;;;12.00;99.90;;;;;;5053046;28;20043;-79
2024/03/23 08:49:52;;;;;;;11.00;4.90;;;12.10;99.90;;;;;;5053161;28;20126;-77
2024/03/23 08:52:17;;;;;;;10.25;5.75;;;12.20;99.90;;;;;;5053037;28;20505;-79
2024/03/23 08:54:43;;;;;;;8.68;5.07;;;12.20;99.90;;;;;;5049462;28;20033;-76
2024/03/23 08:57:09;;;;;;;10.75;4.82;;;12.50;99.90;;;;;;5052825;28;20086;-82
2024/03/23 08:59:34;;;;;;;9.75;4.72;;;12.80;99.90;;;;;;5052988;28;20032;-80
2024/03/23 09:02:00;;;;;;;10.15;5.43;;;13.10;99.90;;;;;;5050905;28;20109;-80
2024/03/23 09:04:26;;;;;;;10.13;4.68;;;13.10;99.90;;;;;;5053177;28;20110;-80
2024/03/23 09:06:51;;;;;;;8.10;4.47;;;13.10;99.90;;;;;;5052863;28;20517;-80
2024/03/23 09:09:17;;;;;;;10.02;5.22;;;13.20;99.90;;;;;;5052612;28;20054;-81
2024/03/23 09:11:43;;;;;;;9.18;4.15;;;13.20;99.90;;;;;;5051219;28;20044;-76
2024/03/23 09:14:09;;;;;;;9.27;4.95;;;13.20;99.80;;;;;;5054119;28;20020;-79
2024/03/23 09:16:35;;;;;;;8.75;4.93;;;13.50;99.80;;;;;;5044011;28;20035;-79
2024/03/23 09:19:01;;;;;;;7.30;4.22;;;13.50;99.50;;;;;;5055758;28;20093;-79
2024/03/23 09:21:26;;;;;;;7.15;3.90;;;13.50;99.60;;;;;;5052144;28;20029;-80
2024/03/23 09:23:52;;;;;;;7.03;3.40;;;15.40;98.90;;;;;;5054254;28;20526;-79
2024/03/23 09:26:17;;;;;;;6.97;3.53;;;18.50;95.60;;;;;;5053626;28;20082;-80
2024/03/23 09:28:43;;;;;;;9.68;3.25;;;19.70;93.70;;;;;;5054251;28;20093;-79
2024/03/23 09:31:14;;;;;;;9.45;4.10;;;20.30;92.70;;;;;;5055684;28;20082;-81
2024/03/23 09:33:40;;;;;;;10.40;4.25;;;20.70;91.40;;;;;;5055731;28;20037;-80
2024/03/23 09:36:07;;;;;;;12.60;5.22;;;20.60;92.40;;;;;;5055951;28;20036;-81
2024/03/23 09:38:33;;;;;;;9.48;4.50;;;20.30;91.80;;;;;;5056311;28;20591;-78
2024/03/23 09:41:02;;;;;;;8.43;5.00;;;19.70;91.80;;;;;;5056260;28;20029;-78
2024/03/23 09:43:28;;;;;;;12.85;5.38;;;18.50;92.50;;;;;;5054157;28;20035;-78
2024/03/23 09:45:54;;;;;;;10.93;4.50;;;16.90;93.20;;;;;;5056447;28;20032;-78
2024/03/23 09:48:20;;;;;;;10.38;4.35;;;16.00;94.40;;;;;;5056094;28;20975;-78
2024/03/23 09:50:48;;;;;;;7.60;4.45;;;15.50;95.20;;;;;;5056147;28;20056;-78
2024/03/23 09:53:14;;;;;;;10.65;4.65;;;15.20;95.80;;;;;;5053253;28;20075;-78
2024/03/23 09:55:42;;;;;;;11.73;4.35;;;15.10;96.20;;;;;;5049637;28;20458;-78
2024/03/23 09:58:12;;;;;;;10.35;4.60;;;15.10;96.40;;;;;;5051465;28;20033;-79
2024/03/23 10:00:37;;;;;;;11.93;4.88;;;15.30;97.00;;;;;;5050787;28;20028;-78
2024/03/23 10:03:06;;;;;;;9.02;5.38;;;15.30;96.80;;;;;;5050108;28;20052;-78
2024/03/23 10:05:34;;;;;;;10.82;6.40;;;15.50;96.60;;;;;;5049417;28;20037;-78
2024/03/23 10:08:14;;;;;;;9.45;5.40;;;15.70;96.60;;;;;;5050234;28;20504;-78
2024/03/23 10:10:44;;;;;;;8.68;5.20;;;15.70;96.70;;;;;;5050221;28;20143;-78
2024/03/23 10:13:10;;;;;;;9.88;4.82;;;15.50;97.20;;;;;;5049724;28;20291;-78
2024/03/23 10:15:36;;;;;;;10.27;5.15;;;15.40;96.60;;;;;;5051182;28;20036;-80
2024/03/23 10:18:19;;;;;;;12.13;4.88;;;15.30;97.00;;;;;;5050485;28;20501;-78
2024/03/23 10:21:08;;;;;;;8.48;5.03;;;15.20;96.80;;;;;;5049825;28;20500;-78
2024/03/23 10:23:34;;;;;;;11.20;5.50;;;15.20;96.90;;;;;;5039350;28;20048;-79
2024/03/23 10:26:21;;;;;;;7.65;4.95;;;15.30;96.80;;;;;;5049713;28;20037;-79
2024/03/23 10:28:58;;;;;;;10.75;5.22;;;15.40;97.50;;;;;;5049499;28;20028;-78
2024/03/23 10:31:24;;;;;;;11.77;4.82;;;15.60;97.50;;;;;;5050512;28;20029;-78
2024/03/23 10:33:50;;;;;;;10.43;5.38;;;15.60;97.20;;;;;;5050961;28;20028;-78
2024/03/23 10:36:15;;;;;;;15.40;5.55;;;15.80;97.50;;;;;;5047939;28;20592;-79
2024/03/23 10:38:43;;;;;;;15.20;6.50;;;15.70;96.30;;;;;;5048744;28;20043;-79
2024/03/23 10:41:10;;;;;;;8.82;4.90;;;16.00;97.30;;;;;;5051338;28;20051;-79
2024/03/23 10:43:37;;;;;;;10.85;5.93;;;16.30;97.60;;;;;;5049107;28;20024;-79
2024/03/23 10:46:03;;;;;;;10.65;5.53;;;16.60;97.10;;;;;;5049895;28;20033;-78
2024/03/23 10:48:29;;;;;;;10.32;5.30;;;16.60;97.10;;;;;;5050275;28;20054;-78
2024/03/23 10:50:55;;;;;;;11.15;5.75;;;16.50;96.30;;;;;;5050171;28;20033;-79
2024/03/23 10:53:26;;;;;;;13.35;5.45;;;16.50;96.20;;;;;;5049548;28;20071;-79
2024/03/23 10:55:53;;;;;;;11.90;5.60;;;16.70;95.80;;;;;;5051113;28;20040;-78
2024/03/23 10:58:26;;;;;;;12.23;6.70;;;16.80;96.00;;;;;;5049929;28;20036;-78
2024/03/23 11:00:53;;;;;;;12.07;6.80;;;17.00;96.00;;;;;;5049133;28;20175;-79
2024/03/23 11:03:40;;;;;;;12.45;6.55;;;17.00;95.50;;;;;;5049616;28;20040;-80
2024/03/23 11:06:06;;;;;;;12.90;5.43;;;17.10;95.80;;;;;;5050051;28;20482;-78
2024/03/23 11:08:34;;;;;;;12.38;6.32;;;17.50;95.60;;;;;;5048969;28;20920;-79
2024/03/23 11:11:23;;;;;;;14.90;6.50;;;17.40;94.70;;;;;;5050861;28;20029;-80
2024/03/23 11:13:50;;;;;;;10.38;5.53;;;16.90;94.40;;;;;;5050383;28;20571;-81
2024/03/23 11:16:24;;;;;;;14.27;7.25;;;16.90;94.50;;;;;;5049137;28;20379;-80
2024/03/23 11:18:51;;;;;;;12.52;5.63;;;16.90;94.60;;;;;;5048362;28;20036;-80
2024/03/23 11:21:54;;;;;;;13.32;6.50;;;17.20;94.80;;;;;;5051387;28;20033;-80
2024/03/23 11:24:21;;;;;;;11.32;5.78;;;17.20;94.10;;;;;;5050661;28;20659;-81
2024/03/23 11:26:48;;;;;;;15.10;7.28;;;17.60;94.90;;;;;;5047963;28;20094;-81
2024/03/23 11:29:20;;;;;;;11.43;5.63;;;18.20;94.60;;;;;;5049139;28;20059;-81
2024/03/23 11:31:49;;;;;;;11.00;5.72;;;18.50;94.20;;;;;;5050971;28;20028;-80
2024/03/23 11:34:16;;;;;;;12.38;6.00;;;18.70;93.10;;;;;;5051760;28;20036;-81
2024/03/23 11:36:42;;;;;;;14.38;6.50;;;18.70;93.10;;;;;;5054142;28;20039;-81
2024/03/23 11:39:18;;;;;;;10.68;6.07;;;18.60;92.30;;;;;;5054893;28;20044;-81
2024/03/23 11:41:48;;;;;;;11.65;5.70;;;18.70;92.50;;;;;;5052036;28;20032;-80
2024/03/23 11:44:27;;;;;;;10.27;4.70;;;18.80;92.30;;;;;;5051551;28;20053;-81
2024/03/23 11:46:53;;;;;;;10.88;5.90;;;18.80;92.80;;;;;;5051988;28;20093;-81
2024/03/23 11:49:26;;;;;;;9.35;5.75;;;18.60;92.40;;;;;;5053611;28;20052;-81
2024/03/23 11:51:56;;;;;;;14.85;6.53;;;18.40;92.80;;;;;;5052713;28;20028;-81
2024/03/23 11:54:23;;;;;;;16.13;5.65;;;18.70;92.50;;;;;;5052738;28;20036;-81
2024/03/23 11:56:59;;;;;;;13.02;6.47;;;19.00;93.00;;;;;;5051784;28;20044;-81
2024/03/23 11:59:35;;;;;;;16.20;6.43;;;19.10;92.70;;;;;;5054342;28;20173;-78
2024/03/23 12:02:16;;;;;;;9.40;4.60;;;19.10;92.20;;;;;;5052348;28;20371;-80
2024/03/23 12:04:42;;;;;;;9.38;5.75;;;19.30;92.30;;;;;;5053729;28;20113;-80
2024/03/23 12:07:12;;;;;;;10.48;5.65;;;19.50;92.20;;;;;;5051763;28;20037;-80
2024/03/23 12:09:38;;;;;;;12.32;5.75;;;19.80;91.90;;;;;;5052303;28;20076;-80
2024/03/23 12:12:17;;;;;;;9.80;5.90;;;19.70;92.10;;;;;;5052478;28;20040;-80
2024/03/23 12:14:44;;;;;;;14.98;7.70;;;19.60;91.60;;;;;;5053090;28;20043;-80
2024/03/23 12:17:14;;;;;;;14.77;5.70;;;19.80;91.80;;;;;;5051984;28;20033;-81
2024/03/23 12:19:41;;;;;;;11.50;4.88;;;19.90;91.70;;;;;;5052269;28;20990;-80
2024/03/23 12:22:07;;;;;;;9.65;4.70;;;20.10;91.20;;;;;;5052991;28;20429;-81
2024/03/23 12:24:34;;;;;;;9.50;5.07;;;20.20;91.90;;;;;;5050001;28;20040;-81
2024/03/23 12:27:07;;;;;;;13.88;5.43;;;20.20;91.30;;;;;;5051686;28;20051;-81
2024/03/23 12:29:32;;;;;;;9.30;4.85;;;20.30;91.20;;;;;;5053330;28;20733;-81
2024/03/23 12:32:02;;;;;;;9.07;5.38;;;20.30;91.00;;;;;;5051893;28;20037;-81
2024/03/23 12:34:30;;;;;;;10.05;5.28;;;20.30;91.00;;;;;;5050472;28;20047;-80
2024/03/23 12:36:56;;;;;;;7.47;4.28;;;20.10;90.50;;;;;;5052864;28;20029;-80
2024/03/23 12:39:21;;;;;;;9.40;5.05;;;20.10;91.30;;;;;;5051776;28;20035;-80
2024/03/23 12:41:48;;;;;;;14.25;4.80;;;20.10;91.20;;;;;;5051044;28;20775;-80
2024/03/23 12:44:15;;;;;;;14.00;6.18;;;20.20;90.90;;;;;;5052549;28;20056;-78